AirNav   Duncan Aviation - Near you to keep you flying
 
 908 users online  

60IL Beulah Land Farm Airport
Biggsville, Illinois, USA

GOING TO BIGGSVILLE?


FAA INFORMATION EFFECTIVE 01 DECEMBER 2022

Location

FAA Identifier: 60IL
Lat/Long: 40-50-23.0000N 090-48-19.0000W
40-50.383333N 090-48.316667W
40.8397222,-90.8052778
(estimated)
Elevation: 723 ft. / 220 m
From city: 3 miles SE of BIGGSVILLE, IL
Time zone: UTC -6 (UTC -5 during Daylight Saving Time)
Zip code: 61418

Airport Operations

Airport use: Private use. Permission required prior to landing
Activation date: 10/2015
Control tower: no
ARTCC: CHICAGO CENTER
FSS: KANKAKEE FLIGHT SERVICE STATION
Attendance: UNATNDD
Wind indicator: yes
Segmented circle: no

Airport Communications

WX ASOS at BRL (15 nm W): 118.025 (319-752-6246)
WX AWOS-3 at GBG (18 nm E): 118.975 (309-343-3711)

Nearby radio navigation aids

VOR radial/distance  VOR name  Freq  Var
BRLr033/8.9BURLINGTON VOR/DME111.4005E
MZVr190/29.8MOLINE VOR/DME114.4005E

 
NDB name  Hdg/Dist  Freq  Var  ID
MACOMB329/22.325101EJZY .--- --.. -.--
KEOKUK050/36.436602EEOK . --- -.-

Airport Services

Runway Information

Runway 18/36

Dimensions: 1000 x 100 ft. / 305 x 30 m
Surface: turf
RUNWAY 18  RUNWAY 36
Traffic pattern: leftleft

Airport Ownership and Management from official FAA records

Ownership: Privately-owned
Owner: RAYMOND DEFENBAUGH
1412 TOWNSHIP RD 2000E
BIGGSVILLE, IL 61418
Phone (309) 297-0548
Manager: MATTHEW DEFENBAUGH
1412 TOWNSHIP RD 2000E
BIGGSVILLE, IL 61418
Phone (309) 297-0548

Additional Remarks

FOR CD CTC CHICAGO ARTCC AT 630-906-8921.

Instrument Procedures

There are no published instrument procedures at 60IL.

Some nearby airports with instrument procedures:

C66 - Monmouth Municipal Airport (10 nm NE)
KBRL - Southeast Iowa Regional Airport (15 nm W)
KGBG - Galesburg Municipal Airport (18 nm E)
KMQB - Macomb Municipal Airport (20 nm S)
KFSW - Fort Madison Municipal Airport (26 nm SW)
 
Loc | Ops | Rwys | IFR | FBO | Links
Com | Nav | Svcs | Stats | Notes
Aerial photo
No photo
 
Airport distance calculator
Flying to Beulah Land Farm Airport? Find the distance to fly.

From to 60IL

Sunrise and sunset
Times for 07-Dec-2022
 Local
(UTC-6)
 Zulu
(UTC)
Morning civil twilight06:4412:44
Sunrise07:1513:15
Sunset16:3422:34
Evening civil twilight17:0523:05

Current date and time
Zulu (UTC)  07-Dec-2022 12:56:15
Local (UTC-6)  07-Dec-2022 06:56:15
 
METAR
KBRL 
16nm W 
071153Z AUTO 00000KT 1/4SM FZFG VV001 M02/M02 A3017 RMK AO2 SLP222 I1001 I6002 T10171022 10022 21039 53010
KGBG 
18nm E 
071235Z AUTO 10004KT 1/4SM FG OVC002 00/00 A3019 RMK AO2 T10011001
KMQB 
21nm S 
071235Z AUTO 10004KT 1SM BR OVC002 00/00 A3021 RMK AO2 T00001001
KFSW 
25nm SW 
071235Z AUTO 00000KT M1/4SM FZFG M02/M02 A3017 RMK AO2
TAF
KBRL 
16nm W 
071134Z 0712/0812 VRB03KT 1/4SM FG VV001 TEMPO 0714/0716 1SM BR OVC003 FM071600 VRB04KT P6SM SCT040 FM080000 02005KT P6SM SCT250
NOTAMs
Click for the latest NOTAMs
NOTAMs are issued by the DoD/FAA and will open in a separate window not controlled by AirNav.

 

 
 

Would you like to see your business listed on this page?

 If your business provides an interesting product or service to pilots, flight crews, aircraft, or users of the Beulah Land Farm Airport, you should consider listing it here.  To start the listing process, click on the button below
 
Add a business
 

Other Pages about Beulah Land Farm Airport

Update a link
 
Copyright © AirNav, LLC. All rights reserved. Privacy Policy  Contact